Alida, Minnesota
Current Conditions -  °F | °C
As of 1:52 PM on Wednesday 28 Jan 2015 (Local Time) from KBJI Reporting Station
Haze Haze  
Wind Chill: -5°   Ceiling: 400
Heat Index:   Visibility: 4mi
Dew Point: -1°   Wind: 8mph
Humidity: 95%   Direction: 180°S
Pressure: 29.76"   Gusts: NA
Location:  47.4609°N, 95.2384°W
Report Text: KBJI 281952Z AUTO 18007KT 4SM BR OVC004 00/M01 A2976 RMK AO2 T10051012
Loading
Personal Weather Stations






























Interactive Weather Map New forecast layout! Learn more

10-Day Weather Forecast

Advertisements
Track Severe Weather on mobile